sensor_id;sensor_type;location;lat;lon;timestamp;temperature;humidity
1075;DHT22;526;51.392;12.448;2022-12-10T00:01:51;1.00;97.30
1075;DHT22;526;51.392;12.448;2022-12-10T00:04:17;1.00;97.30
1075;DHT22;526;51.392;12.448;2022-12-10T00:06:44;1.00;97.30
1075;DHT22;526;51.392;12.448;2022-12-10T00:09:17;1.00;97.30
1075;DHT22;526;51.392;12.448;2022-12-10T00:11:44;1.00;97.30
1075;DHT22;526;51.392;12.448;2022-12-10T00:14:11;0.90;97.30
1075;DHT22;526;51.392;12.448;2022-12-10T00:16:37;0.90;97.30
1075;DHT22;526;51.392;12.448;2022-12-10T00:19:03;0.90;97.30
1075;DHT22;526;51.392;12.448;2022-12-10T00:21:32;0.90;97.30
1075;DHT22;526;51.392;12.448;2022-12-10T00:24:00;0.90;97.30
1075;DHT22;526;51.392;12.448;2022-12-10T00:26:30;0.90;97.30
1075;DHT22;526;51.392;12.448;2022-12-10T00:28:56;0.90;97.30
1075;DHT22;526;51.392;12.448;2022-12-10T00:31:28;0.80;97.30
1075;DHT22;526;51.392;12.448;2022-12-10T00:34:00;0.80;97.30
1075;DHT22;526;51.392;12.448;2022-12-10T00:36:29;0.80;97.30
1075;DHT22;526;51.392;12.448;2022-12-10T00:38:55;0.80;97.30
1075;DHT22;526;51.392;12.448;2022-12-10T00:41:21;0.80;97.30
1075;DHT22;526;51.392;12.448;2022-12-10T00:43:47;0.80;97.30
1075;DHT22;526;51.392;12.448;2022-12-10T00:46:14;0.80;97.30
1075;DHT22;526;51.392;12.448;2022-12-10T00:48:41;0.80;97.30
1075;DHT22;526;51.392;12.448;2022-12-10T00:51:08;0.80;97.30
1075;DHT22;526;51.392;12.448;2022-12-10T00:53:35;0.80;97.30
1075;DHT22;526;51.392;12.448;2022-12-10T00:56:02;0.80;97.30
1075;DHT22;526;51.392;12.448;2022-12-10T00:58:30;0.80;97.30
1075;DHT22;526;51.392;12.448;2022-12-10T01:01:07;0.80;97.30
1075;DHT22;526;51.392;12.448;2022-12-10T01:03:32;0.80;97.30
1075;DHT22;526;51.392;12.448;2022-12-10T01:08:37;0.80;97.30
1075;DHT22;526;51.392;12.448;2022-12-10T01:11:02;0.80;97.30
1075;DHT22;526;51.392;12.448;2022-12-10T01:13:28;0.80;97.30
1075;DHT22;526;51.392;12.448;2022-12-10T01:15:53;0.80;97.30
1075;DHT22;526;51.392;12.448;2022-12-10T01:18:19;0.80;97.30
1075;DHT22;526;51.392;12.448;2022-12-10T01:20:44;0.80;97.30
1075;DHT22;526;51.392;12.448;2022-12-10T01:23:10;0.80;97.30
1075;DHT22;526;51.392;12.448;2022-12-10T01:25:36;0.80;97.30
1075;DHT22;526;51.392;12.448;2022-12-10T01:28:01;0.80;97.30
1075;DHT22;526;51.392;12.448;2022-12-10T01:30:27;0.80;97.30
1075;DHT22;526;51.392;12.448;2022-12-10T01:32:52;0.80;97.30
1075;DHT22;526;51.392;12.448;2022-12-10T01:35:18;0.80;97.30
1075;DHT22;526;51.392;12.448;2022-12-10T01:37:43;0.80;97.30
1075;DHT22;526;51.392;12.448;2022-12-10T01:40:09;0.80;97.30
1075;DHT22;526;51.392;12.448;2022-12-10T01:42:36;0.80;97.30
1075;DHT22;526;51.392;12.448;2022-12-10T01:45:07;0.80;97.30
1075;DHT22;526;51.392;12.448;2022-12-10T01:47:34;0.80;97.30
1075;DHT22;526;51.392;12.448;2022-12-10T01:50:01;0.80;97.30
1075;DHT22;526;51.392;12.448;2022-12-10T01:52:27;0.80;97.30
1075;DHT22;526;51.392;12.448;2022-12-10T01:54:54;0.80;97.30
1075;DHT22;526;51.392;12.448;2022-12-10T01:57:23;0.80;97.30
1075;DHT22;526;51.392;12.448;2022-12-10T02:00:03;0.80;97.30
1075;DHT22;526;51.392;12.448;2022-12-10T02:02:49;0.80;97.30
1075;DHT22;526;51.392;12.448;2022-12-10T02:05:46;0.90;97.30
1075;DHT22;526;51.392;12.448;2022-12-10T02:08:36;0.90;97.30
1075;DHT22;526;51.392;12.448;2022-12-10T02:11:22;0.90;97.30
1075;DHT22;526;51.392;12.448;2022-12-10T02:14:04;0.90;97.30
1075;DHT22;526;51.392;12.448;2022-12-10T02:17:11;0.90;97.30
1075;DHT22;526;51.392;12.448;2022-12-10T02:20:00;0.90;97.30
1075;DHT22;526;51.392;12.448;2022-12-10T02:22:32;0.90;97.30
1075;DHT22;526;51.392;12.448;2022-12-10T02:25:00;0.90;97.30
1075;DHT22;526;51.392;12.448;2022-12-10T02:27:30;0.90;97.30
1075;DHT22;526;51.392;12.448;2022-12-10T02:29:58;0.90;97.30
1075;DHT22;526;51.392;12.448;2022-12-10T02:32:31;0.90;97.30
1075;DHT22;526;51.392;12.448;2022-12-10T02:35:23;0.90;97.30
1075;DHT22;526;51.392;12.448;2022-12-10T02:37:57;0.90;97.30
1075;DHT22;526;51.392;12.448;2022-12-10T02:40:29;0.90;97.30
1075;DHT22;526;51.392;12.448;2022-12-10T02:42:56;0.90;97.30
1075;DHT22;526;51.392;12.448;2022-12-10T02:45:25;0.90;97.30
1075;DHT22;526;51.392;12.448;2022-12-10T02:47:55;0.90;97.30
1075;DHT22;526;51.392;12.448;2022-12-10T02:50:22;0.90;97.30
1075;DHT22;526;51.392;12.448;2022-12-10T02:52:48;0.90;97.30
1075;DHT22;526;51.392;12.448;2022-12-10T02:55:15;0.90;97.30
1075;DHT22;526;51.392;12.448;2022-12-10T02:58:02;0.90;97.30
1075;DHT22;526;51.392;12.448;2022-12-10T03:00:32;0.90;97.30
1075;DHT22;526;51.392;12.448;2022-12-10T03:03:14;0.90;97.30
1075;DHT22;526;51.392;12.448;2022-12-10T03:06:11;0.90;97.30
1075;DHT22;526;51.392;12.448;2022-12-10T03:08:49;0.90;97.30
1075;DHT22;526;51.392;12.448;2022-12-10T03:11:21;0.90;97.30
1075;DHT22;526;51.392;12.448;2022-12-10T03:14:04;0.90;97.30
1075;DHT22;526;51.392;12.448;2022-12-10T03:16:41;0.90;97.30
1075;DHT22;526;51.392;12.448;2022-12-10T03:19:12;0.90;97.30
1075;DHT22;526;51.392;12.448;2022-12-10T03:21:39;0.90;97.30
1075;DHT22;526;51.392;12.448;2022-12-10T03:24:07;0.90;97.30
1075;DHT22;526;51.392;12.448;2022-12-10T03:26:33;0.90;97.30
1075;DHT22;526;51.392;12.448;2022-12-10T03:29:05;0.90;97.30
1075;DHT22;526;51.392;12.448;2022-12-10T03:31:33;0.90;97.30
1075;DHT22;526;51.392;12.448;2022-12-10T03:34:00;0.90;97.30
1075;DHT22;526;51.392;12.448;2022-12-10T03:36:27;0.90;97.30
1075;DHT22;526;51.392;12.448;2022-12-10T03:38:54;0.90;97.30
1075;DHT22;526;51.392;12.448;2022-12-10T03:41:20;0.90;97.30
1075;DHT22;526;51.392;12.448;2022-12-10T03:43:54;0.90;97.30
1075;DHT22;526;51.392;12.448;2022-12-10T03:46:21;0.90;97.30
1075;DHT22;526;51.392;12.448;2022-12-10T03:48:47;0.90;97.30
1075;DHT22;526;51.392;12.448;2022-12-10T03:51:12;0.90;97.30
1075;DHT22;526;51.392;12.448;2022-12-10T03:53:38;0.90;97.30
1075;DHT22;526;51.392;12.448;2022-12-10T03:56:03;0.90;97.30
1075;DHT22;526;51.392;12.448;2022-12-10T03:58:29;0.90;97.30
1075;DHT22;526;51.392;12.448;2022-12-10T04:00:55;0.90;97.30
1075;DHT22;526;51.392;12.448;2022-12-10T04:03:20;0.90;97.30
1075;DHT22;526;51.392;12.448;2022-12-10T04:05:46;0.90;97.30
1075;DHT22;526;51.392;12.448;2022-12-10T04:08:11;0.90;97.30
1075;DHT22;526;51.392;12.448;2022-12-10T04:10:37;0.80;97.30
1075;DHT22;526;51.392;12.448;2022-12-10T04:13:03;0.80;97.30
1075;DHT22;526;51.392;12.448;2022-12-10T04:15:48;0.80;97.30
1075;DHT22;526;51.392;12.448;2022-12-10T04:18:32;0.80;97.30
1075;DHT22;526;51.392;12.448;2022-12-10T04:20:57;0.80;97.30
1075;DHT22;526;51.392;12.448;2022-12-10T04:23:41;0.80;97.30
1075;DHT22;526;51.392;12.448;2022-12-10T04:26:25;0.80;97.30
1075;DHT22;526;51.392;12.448;2022-12-10T04:29:10;0.80;97.30
1075;DHT22;526;51.392;12.448;2022-12-10T04:31:35;0.80;97.30
1075;DHT22;526;51.392;12.448;2022-12-10T04:34:01;0.80;97.30
1075;DHT22;526;51.392;12.448;2022-12-10T04:36:26;0.80;97.30
1075;DHT22;526;51.392;12.448;2022-12-10T04:38:52;0.80;97.30
1075;DHT22;526;51.392;12.448;2022-12-10T04:41:17;0.80;97.30
1075;DHT22;526;51.392;12.448;2022-12-10T04:43:43;0.80;97.30
1075;DHT22;526;51.392;12.448;2022-12-10T04:46:09;0.80;97.30
1075;DHT22;526;51.392;12.448;2022-12-10T04:48:35;0.80;97.30
1075;DHT22;526;51.392;12.448;2022-12-10T04:51:01;0.80;97.30
1075;DHT22;526;51.392;12.448;2022-12-10T04:53:26;0.70;97.30
1075;DHT22;526;51.392;12.448;2022-12-10T04:55:52;0.70;97.30
1075;DHT22;526;51.392;12.448;2022-12-10T04:58:17;0.70;97.30
1075;DHT22;526;51.392;12.448;2022-12-10T05:00:43;0.70;97.30
1075;DHT22;526;51.392;12.448;2022-12-10T05:03:08;0.70;97.30
1075;DHT22;526;51.392;12.448;2022-12-10T05:05:34;0.70;97.30
1075;DHT22;526;51.392;12.448;2022-12-10T05:08:00;0.70;97.30
1075;DHT22;526;51.392;12.448;2022-12-10T05:10:25;0.70;97.30
1075;DHT22;526;51.392;12.448;2022-12-10T05:12:52;0.70;97.30
1075;DHT22;526;51.392;12.448;2022-12-10T05:15:17;0.70;97.30
1075;DHT22;526;51.392;12.448;2022-12-10T05:17:43;0.70;97.30
1075;DHT22;526;51.392;12.448;2022-12-10T05:20:09;0.70;97.30
1075;DHT22;526;51.392;12.448;2022-12-10T05:22:34;0.70;97.30
1075;DHT22;526;51.392;12.448;2022-12-10T05:25:18;0.70;97.30
1075;DHT22;526;51.392;12.448;2022-12-10T05:27:44;0.70;97.30
1075;DHT22;526;51.392;12.448;2022-12-10T05:30:10;0.60;97.30
1075;DHT22;526;51.392;12.448;2022-12-10T05:32:36;0.60;97.30
1075;DHT22;526;51.392;12.448;2022-12-10T05:35:02;0.60;97.30
1075;DHT22;526;51.392;12.448;2022-12-10T05:37:28;0.60;97.30
1075;DHT22;526;51.392;12.448;2022-12-10T05:39:53;0.60;97.30
1075;DHT22;526;51.392;12.448;2022-12-10T05:42:19;0.60;97.30
1075;DHT22;526;51.392;12.448;2022-12-10T05:44:45;0.60;97.30
1075;DHT22;526;51.392;12.448;2022-12-10T05:47:11;0.50;97.30
1075;DHT22;526;51.392;12.448;2022-12-10T05:49:37;0.50;97.30
1075;DHT22;526;51.392;12.448;2022-12-10T05:52:02;0.50;97.30
1075;DHT22;526;51.392;12.448;2022-12-10T05:54:28;0.50;97.30
1075;DHT22;526;51.392;12.448;2022-12-10T05:56:53;0.50;97.30
1075;DHT22;526;51.392;12.448;2022-12-10T05:59:19;0.40;97.30
1075;DHT22;526;51.392;12.448;2022-12-10T06:01:48;0.40;97.30
1075;DHT22;526;51.392;12.448;2022-12-10T06:04:13;0.40;97.30
1075;DHT22;526;51.392;12.448;2022-12-10T06:06:40;0.40;97.30
1075;DHT22;526;51.392;12.448;2022-12-10T06:09:07;0.40;97.30
1075;DHT22;526;51.392;12.448;2022-12-10T06:11:35;0.40;97.30
1075;DHT22;526;51.392;12.448;2022-12-10T06:14:01;0.30;97.30
1075;DHT22;526;51.392;12.448;2022-12-10T06:16:28;0.30;97.30
1075;DHT22;526;51.392;12.448;2022-12-10T06:18:54;0.30;97.30
1075;DHT22;526;51.392;12.448;2022-12-10T06:21:20;0.30;97.30
1075;DHT22;526;51.392;12.448;2022-12-10T06:23:47;0.30;97.30
1075;DHT22;526;51.392;12.448;2022-12-10T06:26:24;0.30;97.30
1075;DHT22;526;51.392;12.448;2022-12-10T06:28:51;0.30;97.30
1075;DHT22;526;51.392;12.448;2022-12-10T06:31:17;0.30;97.30
1075;DHT22;526;51.392;12.448;2022-12-10T06:33:43;0.30;97.30
1075;DHT22;526;51.392;12.448;2022-12-10T06:36:10;0.30;97.30
1075;DHT22;526;51.392;12.448;2022-12-10T06:38:36;0.30;97.30
1075;DHT22;526;51.392;12.448;2022-12-10T06:41:07;0.30;97.30
1075;DHT22;526;51.392;12.448;2022-12-10T06:43:33;0.30;97.30
1075;DHT22;526;51.392;12.448;2022-12-10T06:45:59;0.30;97.30
1075;DHT22;526;51.392;12.448;2022-12-10T06:48:28;0.30;97.30
1075;DHT22;526;51.392;12.448;2022-12-10T06:50:55;0.30;97.30
1075;DHT22;526;51.392;12.448;2022-12-10T06:53:20;0.30;97.30
1075;DHT22;526;51.392;12.448;2022-12-10T06:55:46;0.20;97.30
1075;DHT22;526;51.392;12.448;2022-12-10T06:58:14;0.20;97.30
1075;DHT22;526;51.392;12.448;2022-12-10T07:00:45;0.20;97.30
1075;DHT22;526;51.392;12.448;2022-12-10T07:03:10;0.20;97.30
1075;DHT22;526;51.392;12.448;2022-12-10T07:05:48;0.20;97.30
1075;DHT22;526;51.392;12.448;2022-12-10T07:08:14;0.20;97.30
1075;DHT22;526;51.392;12.448;2022-12-10T07:10:39;0.20;97.30
1075;DHT22;526;51.392;12.448;2022-12-10T07:13:05;0.20;97.30
1075;DHT22;526;51.392;12.448;2022-12-10T07:15:31;0.10;97.30
1075;DHT22;526;51.392;12.448;2022-12-10T07:17:56;0.10;97.30
1075;DHT22;526;51.392;12.448;2022-12-10T07:20:22;0.10;97.30
1075;DHT22;526;51.392;12.448;2022-12-10T07:22:48;0.10;97.30
1075;DHT22;526;51.392;12.448;2022-12-10T07:25:13;0.10;97.30
1075;DHT22;526;51.392;12.448;2022-12-10T07:27:39;0.10;97.30
1075;DHT22;526;51.392;12.448;2022-12-10T07:30:04;0.10;97.30
1075;DHT22;526;51.392;12.448;2022-12-10T07:32:30;0.10;97.30
1075;DHT22;526;51.392;12.448;2022-12-10T07:34:56;0.10;97.30
1075;DHT22;526;51.392;12.448;2022-12-10T07:37:21;0.10;97.30
1075;DHT22;526;51.392;12.448;2022-12-10T07:39:47;0.10;97.30
1075;DHT22;526;51.392;12.448;2022-12-10T07:42:12;0.10;97.30
1075;DHT22;526;51.392;12.448;2022-12-10T07:44:38;0.10;97.30
1075;DHT22;526;51.392;12.448;2022-12-10T07:47:03;0.10;97.30
1075;DHT22;526;51.392;12.448;2022-12-10T07:49:29;0.10;97.30
1075;DHT22;526;51.392;12.448;2022-12-10T07:51:55;0.10;97.30
1075;DHT22;526;51.392;12.448;2022-12-10T07:54:20;0.10;97.30
1075;DHT22;526;51.392;12.448;2022-12-10T07:56:46;0.20;97.30
1075;DHT22;526;51.392;12.448;2022-12-10T07:59:12;0.20;97.30
1075;DHT22;526;51.392;12.448;2022-12-10T08:01:37;0.20;97.30
1075;DHT22;526;51.392;12.448;2022-12-10T08:04:03;0.10;97.30
1075;DHT22;526;51.392;12.448;2022-12-10T08:06:29;0.10;97.30
1075;DHT22;526;51.392;12.448;2022-12-10T08:08:58;0.10;97.30
1075;DHT22;526;51.392;12.448;2022-12-10T08:11:24;0.10;97.30
1075;DHT22;526;51.392;12.448;2022-12-10T08:14:03;0.10;97.30
1075;DHT22;526;51.392;12.448;2022-12-10T08:16:32;0.10;97.30
1075;DHT22;526;51.392;12.448;2022-12-10T08:19:24;0.10;97.30
1075;DHT22;526;51.392;12.448;2022-12-10T08:21:55;0.10;97.30
1075;DHT22;526;51.392;12.448;2022-12-10T08:24:21;0.10;97.30
1075;DHT22;526;51.392;12.448;2022-12-10T08:26:46;0.20;97.30
1075;DHT22;526;51.392;12.448;2022-12-10T08:29:12;0.20;97.30
1075;DHT22;526;51.392;12.448;2022-12-10T08:31:38;0.20;97.30
1075;DHT22;526;51.392;12.448;2022-12-10T08:34:04;0.20;97.30
1075;DHT22;526;51.392;12.448;2022-12-10T08:36:30;0.20;97.30
1075;DHT22;526;51.392;12.448;2022-12-10T08:38:58;0.30;97.30
1075;DHT22;526;51.392;12.448;2022-12-10T08:41:24;0.30;97.30
1075;DHT22;526;51.392;12.448;2022-12-10T08:43:51;0.30;97.30
1075;DHT22;526;51.392;12.448;2022-12-10T08:46:17;0.30;97.30
1075;DHT22;526;51.392;12.448;2022-12-10T08:48:43;0.30;97.30
1075;DHT22;526;51.392;12.448;2022-12-10T08:51:11;0.30;97.30
1075;DHT22;526;51.392;12.448;2022-12-10T08:53:38;0.30;97.30
1075;DHT22;526;51.392;12.448;2022-12-10T08:56:04;0.30;97.30
1075;DHT22;526;51.392;12.448;2022-12-10T08:58:29;0.30;97.30
1075;DHT22;526;51.392;12.448;2022-12-10T09:00:55;0.30;97.30
1075;DHT22;526;51.392;12.448;2022-12-10T09:03:21;0.30;97.30
1075;DHT22;526;51.392;12.448;2022-12-10T09:05:46;0.30;97.30
1075;DHT22;526;51.392;12.448;2022-12-10T09:08:12;0.30;97.30
1075;DHT22;526;51.392;12.448;2022-12-10T09:10:39;0.30;97.30
1075;DHT22;526;51.392;12.448;2022-12-10T09:13:05;0.30;97.30
1075;DHT22;526;51.392;12.448;2022-12-10T09:15:30;0.30;97.30
1075;DHT22;526;51.392;12.448;2022-12-10T09:56:14;0.40;97.30
1075;DHT22;526;51.392;12.448;2022-12-10T10:19:03;0.80;97.30
1075;DHT22;526;51.392;12.448;2022-12-10T10:21:38;0.80;97.30
1075;DHT22;526;51.392;12.448;2022-12-10T10:24:10;0.80;97.30
1075;DHT22;526;51.392;12.448;2022-12-10T10:27:50;0.80;97.30
1075;DHT22;526;51.392;12.448;2022-12-10T10:30:43;0.90;97.30
1075;DHT22;526;51.392;12.448;2022-12-10T10:33:25;0.90;97.30
1075;DHT22;526;51.392;12.448;2022-12-10T10:36:01;0.90;97.30
1075;DHT22;526;51.392;12.448;2022-12-10T10:42:14;0.80;97.30
1075;DHT22;526;51.392;12.448;2022-12-10T10:45:00;0.80;97.30
1075;DHT22;526;51.392;12.448;2022-12-10T10:48:21;0.80;97.30
1075;DHT22;526;51.392;12.448;2022-12-10T10:53:45;0.80;97.30
1075;DHT22;526;51.392;12.448;2022-12-10T10:56:43;0.80;97.30
1075;DHT22;526;51.392;12.448;2022-12-10T10:59:32;0.80;97.30
1075;DHT22;526;51.392;12.448;2022-12-10T11:04:58;0.80;97.30
1075;DHT22;526;51.392;12.448;2022-12-10T11:10:22;0.80;97.30
1075;DHT22;526;51.392;12.448;2022-12-10T11:13:37;0.80;97.30
1075;DHT22;526;51.392;12.448;2022-12-10T11:18:58;0.90;97.30
1075;DHT22;526;51.392;12.448;2022-12-10T11:21:29;0.80;97.30
1075;DHT22;526;51.392;12.448;2022-12-10T11:23:59;0.90;97.30
1075;DHT22;526;51.392;12.448;2022-12-10T11:32:28;0.90;97.30
1075;DHT22;526;51.392;12.448;2022-12-10T11:41:48;0.80;97.30
1075;DHT22;526;51.392;12.448;2022-12-10T11:50:52;0.80;97.30
1075;DHT22;526;51.392;12.448;2022-12-10T12:05:31;0.70;97.30
1075;DHT22;526;51.392;12.448;2022-12-10T12:08:20;0.70;97.30
1075;DHT22;526;51.392;12.448;2022-12-10T12:14:29;0.80;97.30
1075;DHT22;526;51.392;12.448;2022-12-10T12:22:50;0.80;97.30
1075;DHT22;526;51.392;12.448;2022-12-10T12:26:00;0.70;97.30
1075;DHT22;526;51.392;12.448;2022-12-10T12:29:18;0.70;97.30
1075;DHT22;526;51.392;12.448;2022-12-10T12:32:11;0.80;97.30
1075;DHT22;526;51.392;12.448;2022-12-10T12:37:39;0.80;97.30
1075;DHT22;526;51.392;12.448;2022-12-10T12:40:33;0.80;97.30
1075;DHT22;526;51.392;12.448;2022-12-10T12:49:37;0.80;97.30
1075;DHT22;526;51.392;12.448;2022-12-10T12:55:00;0.80;97.30
1075;DHT22;526;51.392;12.448;2022-12-10T12:58:17;0.80;97.30
1075;DHT22;526;51.392;12.448;2022-12-10T13:00:50;0.90;97.30
1075;DHT22;526;51.392;12.448;2022-12-10T13:03:40;0.80;97.30
1075;DHT22;526;51.392;12.448;2022-12-10T13:06:37;0.90;97.30
1075;DHT22;526;51.392;12.448;2022-12-10T13:09:49;0.90;97.30
1075;DHT22;526;51.392;12.448;2022-12-10T13:12:29;0.90;97.30
1075;DHT22;526;51.392;12.448;2022-12-10T13:17:36;0.90;97.30
1075;DHT22;526;51.392;12.448;2022-12-10T13:23:46;0.90;97.30
1075;DHT22;526;51.392;12.448;2022-12-10T13:25:59;0.90;97.30
1075;DHT22;526;51.392;12.448;2022-12-10T13:35:18;0.90;97.30
1075;DHT22;526;51.392;12.448;2022-12-10T13:38:41;0.90;97.30
1075;DHT22;526;51.392;12.448;2022-12-10T13:41:18;0.90;97.30
1075;DHT22;526;51.392;12.448;2022-12-10T14:00:20;0.90;97.30
1075;DHT22;526;51.392;12.448;2022-12-10T14:08:40;0.80;97.30
1075;DHT22;526;51.392;12.448;2022-12-10T14:15:20;0.80;97.30
1075;DHT22;526;51.392;12.448;2022-12-10T14:32:49;0.70;97.30
1075;DHT22;526;51.392;12.448;2022-12-10T14:35:28;0.70;97.30
1075;DHT22;526;51.392;12.448;2022-12-10T14:37:58;0.70;97.30
1075;DHT22;526;51.392;12.448;2022-12-10T14:40:50;0.70;97.30
1075;DHT22;526;51.392;12.448;2022-12-10T14:43:21;0.60;97.30
1075;DHT22;526;51.392;12.448;2022-12-10T14:46:20;0.60;97.30
1075;DHT22;526;51.392;12.448;2022-12-10T14:49:28;0.60;97.30
1075;DHT22;526;51.392;12.448;2022-12-10T14:51:57;0.60;97.30
1075;DHT22;526;51.392;12.448;2022-12-10T14:54:46;0.60;97.30
1075;DHT22;526;51.392;12.448;2022-12-10T14:57:28;0.60;97.30
1075;DHT22;526;51.392;12.448;2022-12-10T15:03:10;0.50;97.30
1075;DHT22;526;51.392;12.448;2022-12-10T15:05:58;0.50;97.30
1075;DHT22;526;51.392;12.448;2022-12-10T15:08:25;0.50;97.30
1075;DHT22;526;51.392;12.448;2022-12-10T15:10:57;0.50;97.30
1075;DHT22;526;51.392;12.448;2022-12-10T15:13:24;0.50;97.30
1075;DHT22;526;51.392;12.448;2022-12-10T15:15:53;0.50;97.30
1075;DHT22;526;51.392;12.448;2022-12-10T15:18:21;0.60;97.30
1075;DHT22;526;51.392;12.448;2022-12-10T15:20:52;0.60;97.30
1075;DHT22;526;51.392;12.448;2022-12-10T15:25:52;0.60;97.30
1075;DHT22;526;51.392;12.448;2022-12-10T15:28:37;0.50;97.30
1075;DHT22;526;51.392;12.448;2022-12-10T15:33:49;0.50;97.30
1075;DHT22;526;51.392;12.448;2022-12-10T15:36:37;0.50;97.30
1075;DHT22;526;51.392;12.448;2022-12-10T15:49:24;0.40;97.30
1075;DHT22;526;51.392;12.448;2022-12-10T15:51:50;0.40;97.30
1075;DHT22;526;51.392;12.448;2022-12-10T15:56:44;0.60;97.30
1075;DHT22;526;51.392;12.448;2022-12-10T15:59:10;0.60;97.30
1075;DHT22;526;51.392;12.448;2022-12-10T16:01:35;0.60;97.30
1075;DHT22;526;51.392;12.448;2022-12-10T16:04:01;0.60;97.30
1075;DHT22;526;51.392;12.448;2022-12-10T16:06:27;0.70;97.30
1075;DHT22;526;51.392;12.448;2022-12-10T16:08:52;0.70;97.30
1075;DHT22;526;51.392;12.448;2022-12-10T16:11:18;0.70;97.30
1075;DHT22;526;51.392;12.448;2022-12-10T16:13:49;0.70;97.30
1075;DHT22;526;51.392;12.448;2022-12-10T16:16:16;0.70;97.30
1075;DHT22;526;51.392;12.448;2022-12-10T16:18:42;0.70;97.30
1075;DHT22;526;51.392;12.448;2022-12-10T16:21:08;0.70;97.30
1075;DHT22;526;51.392;12.448;2022-12-10T16:23:37;0.70;97.30
1075;DHT22;526;51.392;12.448;2022-12-10T16:28:37;0.70;97.30
1075;DHT22;526;51.392;12.448;2022-12-10T16:31:03;0.70;97.30
1075;DHT22;526;51.392;12.448;2022-12-10T16:33:29;0.70;97.30
1075;DHT22;526;51.392;12.448;2022-12-10T16:35:55;0.70;97.30
1075;DHT22;526;51.392;12.448;2022-12-10T16:38:22;0.70;97.30
1075;DHT22;526;51.392;12.448;2022-12-10T16:40:49;0.80;97.30
1075;DHT22;526;51.392;12.448;2022-12-10T16:43:22;0.80;97.30
1075;DHT22;526;51.392;12.448;2022-12-10T16:45:48;0.80;97.30
1075;DHT22;526;51.392;12.448;2022-12-10T16:48:15;0.80;97.30
1075;DHT22;526;51.392;12.448;2022-12-10T16:50:41;0.80;97.30
1075;DHT22;526;51.392;12.448;2022-12-10T16:53:25;0.70;97.30
1075;DHT22;526;51.392;12.448;2022-12-10T16:55:52;0.80;97.30
1075;DHT22;526;51.392;12.448;2022-12-10T16:58:18;0.80;97.30
1075;DHT22;526;51.392;12.448;2022-12-10T17:00:45;0.70;97.30
1075;DHT22;526;51.392;12.448;2022-12-10T17:03:13;0.70;97.30
1075;DHT22;526;51.392;12.448;2022-12-10T17:05:48;0.60;97.30
1075;DHT22;526;51.392;12.448;2022-12-10T17:08:14;0.60;97.30
1075;DHT22;526;51.392;12.448;2022-12-10T17:10:39;0.60;97.30
1075;DHT22;526;51.392;12.448;2022-12-10T17:13:24;0.50;97.30
1075;DHT22;526;51.392;12.448;2022-12-10T17:15:51;0.50;97.30
1075;DHT22;526;51.392;12.448;2022-12-10T17:18:18;0.50;97.30
1075;DHT22;526;51.392;12.448;2022-12-10T17:20:44;0.50;97.30
1075;DHT22;526;51.392;12.448;2022-12-10T17:23:10;0.50;97.30
1075;DHT22;526;51.392;12.448;2022-12-10T17:25:37;0.50;97.30
1075;DHT22;526;51.392;12.448;2022-12-10T17:28:03;0.50;97.30
1075;DHT22;526;51.392;12.448;2022-12-10T17:30:28;0.40;97.30
1075;DHT22;526;51.392;12.448;2022-12-10T17:32:54;0.40;97.30
1075;DHT22;526;51.392;12.448;2022-12-10T17:35:20;0.50;97.30
1075;DHT22;526;51.392;12.448;2022-12-10T17:37:46;0.50;97.30
1075;DHT22;526;51.392;12.448;2022-12-10T17:40:18;0.40;97.30
1075;DHT22;526;51.392;12.448;2022-12-10T17:42:44;0.40;97.30
1075;DHT22;526;51.392;12.448;2022-12-10T17:45:15;0.40;97.30
1075;DHT22;526;51.392;12.448;2022-12-10T17:47:41;0.40;97.30
1075;DHT22;526;51.392;12.448;2022-12-10T17:50:37;0.40;97.30
1075;DHT22;526;51.392;12.448;2022-12-10T17:53:04;0.40;97.30
1075;DHT22;526;51.392;12.448;2022-12-10T17:55:31;0.40;97.30
1075;DHT22;526;51.392;12.448;2022-12-10T17:57:57;0.40;97.30
1075;DHT22;526;51.392;12.448;2022-12-10T18:00:24;0.40;97.30
1075;DHT22;526;51.392;12.448;2022-12-10T18:02:50;0.40;97.30
1075;DHT22;526;51.392;12.448;2022-12-10T18:05:16;0.40;97.30
1075;DHT22;526;51.392;12.448;2022-12-10T18:07:42;0.30;97.30
1075;DHT22;526;51.392;12.448;2022-12-10T18:10:21;0.30;97.30
1075;DHT22;526;51.392;12.448;2022-12-10T18:12:47;0.40;97.30
1075;DHT22;526;51.392;12.448;2022-12-10T18:15:16;0.50;97.30
1075;DHT22;526;51.392;12.448;2022-12-10T18:17:45;0.50;97.30
1075;DHT22;526;51.392;12.448;2022-12-10T18:22:43;0.50;97.30
1075;DHT22;526;51.392;12.448;2022-12-10T18:25:08;0.50;97.30
1075;DHT22;526;51.392;12.448;2022-12-10T18:27:34;0.50;97.30
1075;DHT22;526;51.392;12.448;2022-12-10T18:29:59;0.50;97.30
1075;DHT22;526;51.392;12.448;2022-12-10T18:32:25;0.50;97.30
1075;DHT22;526;51.392;12.448;2022-12-10T18:34:50;0.50;97.30
1075;DHT22;526;51.392;12.448;2022-12-10T18:37:16;0.50;97.30
1075;DHT22;526;51.392;12.448;2022-12-10T18:39:42;0.40;97.30
1075;DHT22;526;51.392;12.448;2022-12-10T18:42:07;0.40;97.30
1075;DHT22;526;51.392;12.448;2022-12-10T18:44:33;0.40;97.30
1075;DHT22;526;51.392;12.448;2022-12-10T18:46:58;0.40;97.30
1075;DHT22;526;51.392;12.448;2022-12-10T18:49:24;0.40;97.30
1075;DHT22;526;51.392;12.448;2022-12-10T18:51:51;0.40;97.30
1075;DHT22;526;51.392;12.448;2022-12-10T18:54:17;0.40;97.30
1075;DHT22;526;51.392;12.448;2022-12-10T18:56:43;0.30;97.30
1075;DHT22;526;51.392;12.448;2022-12-10T18:59:15;0.30;97.30
1075;DHT22;526;51.392;12.448;2022-12-10T19:01:43;0.30;97.30
1075;DHT22;526;51.392;12.448;2022-12-10T19:04:09;0.30;97.30
1075;DHT22;526;51.392;12.448;2022-12-10T19:06:35;0.30;97.30
1075;DHT22;526;51.392;12.448;2022-12-10T19:09:01;0.30;97.30
1075;DHT22;526;51.392;12.448;2022-12-10T19:11:27;0.20;97.30
1075;DHT22;526;51.392;12.448;2022-12-10T19:13:52;0.20;97.30
1075;DHT22;526;51.392;12.448;2022-12-10T19:16:20;0.20;97.30
1075;DHT22;526;51.392;12.448;2022-12-10T19:18:51;0.10;97.30
1075;DHT22;526;51.392;12.448;2022-12-10T19:21:17;0.10;97.30
1075;DHT22;526;51.392;12.448;2022-12-10T19:23:43;0.10;97.30
1075;DHT22;526;51.392;12.448;2022-12-10T19:26:25;0.10;97.30
1075;DHT22;526;51.392;12.448;2022-12-10T19:28:52;0.10;97.30
1075;DHT22;526;51.392;12.448;2022-12-10T19:31:18;0.10;97.30
1075;DHT22;526;51.392;12.448;2022-12-10T19:33:43;0.10;97.30
1075;DHT22;526;51.392;12.448;2022-12-10T19:36:36;0.10;97.30
1075;DHT22;526;51.392;12.448;2022-12-10T19:39:03;0.10;97.30
1075;DHT22;526;51.392;12.448;2022-12-10T19:41:29;0.20;97.30
1075;DHT22;526;51.392;12.448;2022-12-10T19:43:54;0.30;97.30
1075;DHT22;526;51.392;12.448;2022-12-10T19:46:23;0.30;97.30
1075;DHT22;526;51.392;12.448;2022-12-10T19:48:49;0.30;97.30
1075;DHT22;526;51.392;12.448;2022-12-10T19:51:16;0.30;97.30
1075;DHT22;526;51.392;12.448;2022-12-10T19:53:42;0.20;97.30
1075;DHT22;526;51.392;12.448;2022-12-10T19:56:29;0.20;97.30
1075;DHT22;526;51.392;12.448;2022-12-10T19:58:57;0.20;97.30
1075;DHT22;526;51.392;12.448;2022-12-10T20:01:24;0.10;97.30
1075;DHT22;526;51.392;12.448;2022-12-10T20:03:49;0.10;97.30
1075;DHT22;526;51.392;12.448;2022-12-10T20:06:20;0.00;97.30
1075;DHT22;526;51.392;12.448;2022-12-10T20:08:48;0.00;97.30
1075;DHT22;526;51.392;12.448;2022-12-10T20:11:14;0.00;97.30